»·PEaware :: WAT380 KLAS-KBUR

WAT380 :: KLAS-KBUR

FLIGHT INFORMATION

Flight Status: Arrived
Operator:
Walker Air Transport
More flights by this operator :: More flights under this callsign
Pilot: Spencer M. (27733)
Aircraft: BOEING 737-600
(B736)
More flights by this aircraft type
Origin: KLAS Harry Reid Intl
United States
Destination: KBUR Bob Hope-Burbank
United States
More flights between these airports :: More routes between these airports
Route: RADYR2 SLVRR KREME JANNY5
File this flight plan on PilotEdge
Remarks:
Altitude:
(Current/Filed)
22,000ft
Speed:
(Current/Filed)
440kts
Departed: 10-May-23 09:29 AM
Arrived: 10-May-23 10:19 AM
Distance/Time
Traveled:
193nm/0:49
Distance/Time
To Go:
Arrived

Flight Plot

Page will automatically refresh every two minutes.

Flight plan parsing failed; only flown route is shown


Map Options




Map Legend


Flown Route
Filed Route
Departure Airport
Arrival Airport
Navaid (VOR, NDB)
Fix

Horizontal Profiles

Position Reports

Time Latitude Longitude Heading Altitude Ground
Speed
10-May-23 08:54 36.080556 -115.145711 270 2092ft 0kts
10-May-23 08:55 36.080556 -115.145711 270 2092ft 0kts
10-May-23 08:57 36.080556 -115.145711 270 2092ft 0kts
10-May-23 08:57 36.080556 -115.145711 270 2092ft 0kts
10-May-23 08:58 36.080556 -115.145711 270 2092ft 0kts
10-May-23 08:59 36.080556 -115.145711 270 2092ft 0kts
10-May-23 09:00 36.080556 -115.145711 270 2092ft 0kts
10-May-23 09:01 36.080556 -115.145711 270 2092ft 0kts
10-May-23 09:02 36.080556 -115.145711 270 2092ft 0kts
10-May-23 09:03 36.080556 -115.145711 270 2092ft 0kts
10-May-23 09:04 36.080556 -115.145711 270 2092ft 0kts
10-May-23 09:05 36.080556 -115.145711 270 2092ft 0kts
10-May-23 09:06 36.080556 -115.145711 270 2092ft 0kts
10-May-23 09:07 36.080556 -115.145711 270 2092ft 0kts
10-May-23 09:08 36.080556 -115.145711 270 2092ft 0kts
10-May-23 09:09 36.080556 -115.145711 270 2092ft 0kts
10-May-23 09:10 36.080556 -115.145711 270 2092ft 0kts
10-May-23 09:11 36.080556 -115.145711 270 2092ft 0kts
10-May-23 09:12 36.080556 -115.145711 270 2092ft 0kts
10-May-23 09:13 36.080556 -115.145711 270 2092ft 0kts
10-May-23 09:14 36.080556 -115.145711 270 2092ft 0kts
10-May-23 09:15 36.080556 -115.145711 270 2092ft 0kts
10-May-23 09:16 36.080556 -115.145711 270 2092ft 0kts
10-May-23 09:17 36.080560 -115.145501 254 2092ft 2kts
10-May-23 09:18 36.081000 -115.145082 174 2090ft 1kts
10-May-23 09:19 36.081013 -115.145084 173 2090ft 0kts
10-May-23 09:21 36.080979 -115.145079 173 2090ft 0kts
10-May-23 09:22 36.080103 -115.144852 179 2091ft 6kts
10-May-23 09:23 36.078338 -115.144215 98 2092ft 12kts
10-May-23 09:24 36.078263 -115.137954 90 2074ft 19kts
10-May-23 09:25 36.078276 -115.130546 90 2052ft 21kts
10-May-23 09:26 36.078286 -115.124329 91 2038ft 15kts
10-May-23 09:27 36.076565 -115.121190 194 2035ft 5kts
10-May-23 09:28 36.076396 -115.132172 268 2060ft 96kts
10-May-23 09:29 36.077146 -115.184918 265 2665ft 195kts
10-May-23 09:30 36.059089 -115.260295 222 4008ft 249kts
10-May-23 09:31 35.993367 -115.293143 194 5746ft 264kts
10-May-23 09:32 35.918663 -115.312004 192 7084ft 280kts
10-May-23 09:33 35.840563 -115.331193 193 8847ft 291kts
10-May-23 09:34 35.757642 -115.351531 192 10778ft 334kts
10-May-23 09:35 35.661832 -115.374930 192 12799ft 358kts
10-May-23 09:36 35.575692 -115.431766 229 14844ft 363kts
10-May-23 09:37 35.507313 -115.524941 231 16805ft 370kts
10-May-23 09:38 35.437552 -115.619085 231 18471ft 377kts
10-May-23 09:39 35.365976 -115.715243 233 19938ft 385kts
10-May-23 09:40 35.287957 -115.807724 229 21343ft 391kts
10-May-23 09:41 35.206558 -115.898402 230 21957ft 408kts
10-May-23 09:42 35.122339 -115.992145 230 21957ft 412kts
10-May-23 09:43 35.037963 -116.085905 230 22030ft 414kts
10-May-23 09:44 34.953257 -116.180188 232 21972ft 426kts
10-May-23 09:45 34.887995 -116.299197 252 21974ft 422kts
10-May-23 09:46 34.837050 -116.429327 252 21968ft 425kts
10-May-23 09:47 34.790877 -116.560902 261 21990ft 418kts
10-May-23 09:48 34.773918 -116.699077 269 22000ft 412kts
10-May-23 09:49 34.760233 -116.836982 269 22000ft 411kts
10-May-23 09:50 34.746291 -116.975453 268 22004ft 413kts
10-May-23 09:51 34.732183 -117.113824 268 22021ft 412kts
10-May-23 09:52 34.718324 -117.247049 269 22063ft 369kts
10-May-23 09:53 34.705892 -117.366244 269 20883ft 328kts
10-May-23 09:54 34.694261 -117.478400 268 18861ft 338kts
10-May-23 09:55 34.682220 -117.592158 268 17838ft 342kts
10-May-23 09:56 34.670205 -117.704699 267 16705ft 316kts
10-May-23 09:57 34.659392 -117.806169 266 15068ft 316kts
10-May-23 09:58 34.647593 -117.915892 265 13957ft 330kts
10-May-23 09:59 34.636071 -118.021167 265 12742ft 321kts
10-May-23 10:00 34.617583 -118.125328 257 10709ft 319kts
10-May-23 10:01 34.597200 -118.217338 256 10010ft 255kts
10-May-23 10:02 34.577749 -118.304638 257 8800ft 264kts
10-May-23 10:03 34.550191 -118.385777 233 7960ft 268kts
10-May-23 10:04 34.500653 -118.456069 232 7976ft 279kts
10-May-23 10:05 34.450679 -118.528036 233 7403ft 279kts
10-May-23 10:06 34.401254 -118.599069 233 6416ft 273kts
10-May-23 10:07 34.354361 -118.666336 232 6048ft 239kts
10-May-23 10:08 34.312392 -118.726544 232 6070ft 228kts
10-May-23 10:09 34.261773 -118.762055 154 6029ft 241kts
10-May-23 10:10 34.231875 -118.694725 114 4202ft 221kts
10-May-23 10:11 34.209891 -118.634759 115 3275ft 182kts
10-May-23 10:12 34.200361 -118.578942 93 2949ft 155kts
10-May-23 10:13 34.199771 -118.528702 93 2950ft 145kts
10-May-23 10:14 34.199257 -118.482587 93 2614ft 129kts
10-May-23 10:15 34.198758 -118.439473 92 1910ft 130kts
10-May-23 10:16 34.198201 -118.396945 91 1099ft 120kts
10-May-23 10:17 34.197765 -118.358814 90 717ft 71kts
10-May-23 10:18 34.197087 -118.351970 181 700ft 0kts

Navigation Log

Ident Type
Flight plan parsing failed, navigation log unavailable